sensor_id;sensor_type;location;lat;lon;timestamp;pressure;altitude;pressure_sealevel;temperature;humidity
17635;BME280;8936;49.010;12.120;2023-02-20T00:01:18;98837.47;;;9.38;100.00
17635;BME280;8936;49.010;12.120;2023-02-20T00:03:45;98826.59;;;9.40;100.00
17635;BME280;8936;49.010;12.120;2023-02-20T00:06:11;98828.00;;;9.31;100.00
17635;BME280;8936;49.010;12.120;2023-02-20T00:08:37;98820.91;;;9.36;100.00
17635;BME280;8936;49.010;12.120;2023-02-20T00:11:04;98834.13;;;9.31;100.00
17635;BME280;8936;49.010;12.120;2023-02-20T00:13:30;98831.78;;;9.35;100.00
17635;BME280;8936;49.010;12.120;2023-02-20T00:15:57;98842.81;;;9.15;100.00
17635;BME280;8936;49.010;12.120;2023-02-20T00:18:24;98838.88;;;9.29;100.00
17635;BME280;8936;49.010;12.120;2023-02-20T00:20:51;98829.84;;;9.18;100.00
17635;BME280;8936;49.010;12.120;2023-02-20T00:23:17;98837.84;;;9.30;100.00
17635;BME280;8936;49.010;12.120;2023-02-20T00:25:44;98835.63;;;9.27;100.00
17635;BME280;8936;49.010;12.120;2023-02-20T00:28:10;98829.28;;;9.28;100.00
17635;BME280;8936;49.010;12.120;2023-02-20T00:30:37;98829.72;;;9.25;100.00
17635;BME280;8936;49.010;12.120;2023-02-20T00:33:03;98837.13;;;9.23;100.00
17635;BME280;8936;49.010;12.120;2023-02-20T00:35:31;98839.44;;;9.19;100.00
17635;BME280;8936;49.010;12.120;2023-02-20T00:37:57;98840.41;;;9.25;100.00
17635;BME280;8936;49.010;12.120;2023-02-20T00:40:24;98841.75;;;9.16;100.00
17635;BME280;8936;49.010;12.120;2023-02-20T00:42:50;98833.91;;;9.21;100.00
17635;BME280;8936;49.010;12.120;2023-02-20T00:45:17;98842.56;;;9.16;100.00
17635;BME280;8936;49.010;12.120;2023-02-20T00:47:43;98835.53;;;9.22;100.00
17635;BME280;8936;49.010;12.120;2023-02-20T00:50:11;98826.56;;;9.16;100.00
17635;BME280;8936;49.010;12.120;2023-02-20T00:52:39;98833.78;;;9.28;100.00
17635;BME280;8936;49.010;12.120;2023-02-20T00:55:05;98832.38;;;9.13;100.00
17635;BME280;8936;49.010;12.120;2023-02-20T00:57:32;98839.28;;;8.91;100.00
17635;BME280;8936;49.010;12.120;2023-02-20T00:59:58;98838.16;;;8.87;100.00
17635;BME280;8936;49.010;12.120;2023-02-20T01:02:24;98840.97;;;9.27;100.00
17635;BME280;8936;49.010;12.120;2023-02-20T01:04:51;98842.81;;;9.27;100.00
17635;BME280;8936;49.010;12.120;2023-02-20T01:07:17;98835.38;;;9.29;100.00
17635;BME280;8936;49.010;12.120;2023-02-20T01:09:45;98828.91;;;9.25;100.00
17635;BME280;8936;49.010;12.120;2023-02-20T01:12:11;98830.19;;;9.22;100.00
17635;BME280;8936;49.010;12.120;2023-02-20T01:14:38;98831.22;;;9.33;100.00
17635;BME280;8936;49.010;12.120;2023-02-20T01:17:05;98823.81;;;9.00;100.00
17635;BME280;8936;49.010;12.120;2023-02-20T01:19:32;98825.31;;;9.07;100.00
17635;BME280;8936;49.010;12.120;2023-02-20T01:21:58;98825.19;;;9.14;100.00
17635;BME280;8936;49.010;12.120;2023-02-20T01:24:26;98816.38;;;9.02;100.00
17635;BME280;8936;49.010;12.120;2023-02-20T01:26:54;98814.31;;;9.15;100.00
17635;BME280;8936;49.010;12.120;2023-02-20T01:29:20;98811.75;;;9.20;100.00
17635;BME280;8936;49.010;12.120;2023-02-20T01:31:47;98808.75;;;9.05;100.00
17635;BME280;8936;49.010;12.120;2023-02-20T01:34:13;98817.78;;;9.16;100.00
17635;BME280;8936;49.010;12.120;2023-02-20T01:36:44;98816.16;;;9.27;100.00
17635;BME280;8936;49.010;12.120;2023-02-20T01:39:10;98817.44;;;9.12;100.00
17635;BME280;8936;49.010;12.120;2023-02-20T01:41:36;98819.97;;;9.07;100.00
17635;BME280;8936;49.010;12.120;2023-02-20T01:44:04;98826.47;;;9.11;100.00
17635;BME280;8936;49.010;12.120;2023-02-20T01:46:43;98830.88;;;9.17;100.00
17635;BME280;8936;49.010;12.120;2023-02-20T01:49:12;98829.13;;;9.00;100.00
17635;BME280;8936;49.010;12.120;2023-02-20T01:51:40;98845.22;;;9.05;100.00
17635;BME280;8936;49.010;12.120;2023-02-20T01:54:07;98833.19;;;9.02;100.00
17635;BME280;8936;49.010;12.120;2023-02-20T01:56:36;98832.25;;;9.08;100.00
17635;BME280;8936;49.010;12.120;2023-02-20T01:59:03;98825.75;;;9.04;100.00
17635;BME280;8936;49.010;12.120;2023-02-20T02:01:32;98818.22;;;9.13;100.00
17635;BME280;8936;49.010;12.120;2023-02-20T02:03:59;98813.84;;;9.18;100.00
17635;BME280;8936;49.010;12.120;2023-02-20T02:06:27;98819.41;;;9.05;100.00
17635;BME280;8936;49.010;12.120;2023-02-20T02:08:53;98813.25;;;9.05;100.00
17635;BME280;8936;49.010;12.120;2023-02-20T02:11:22;98809.78;;;8.93;100.00
17635;BME280;8936;49.010;12.120;2023-02-20T02:13:49;98811.41;;;9.05;100.00
17635;BME280;8936;49.010;12.120;2023-02-20T02:16:17;98802.38;;;9.06;100.00
17635;BME280;8936;49.010;12.120;2023-02-20T02:18:50;98811.75;;;9.20;100.00
17635;BME280;8936;49.010;12.120;2023-02-20T02:21:42;98809.91;;;9.21;100.00
17635;BME280;8936;49.010;12.120;2023-02-20T02:30:09;98811.63;;;9.04;100.00
17635;BME280;8936;49.010;12.120;2023-02-20T02:32:43;98816.28;;;9.20;100.00
17635;BME280;8936;49.010;12.120;2023-02-20T02:35:26;98802.84;;;9.15;100.00
17635;BME280;8936;49.010;12.120;2023-02-20T02:38:01;98804.13;;;9.12;100.00
17635;BME280;8936;49.010;12.120;2023-02-20T02:40:33;98804.34;;;8.99;100.00
17635;BME280;8936;49.010;12.120;2023-02-20T02:43:05;98801.91;;;9.09;100.00
17635;BME280;8936;49.010;12.120;2023-02-20T02:45:34;98791.13;;;9.16;100.00
17635;BME280;8936;49.010;12.120;2023-02-20T02:48:03;98789.84;;;9.07;100.00
17635;BME280;8936;49.010;12.120;2023-02-20T02:50:32;98792.53;;;9.18;100.00
17635;BME280;8936;49.010;12.120;2023-02-20T02:53:02;98791.72;;;9.18;100.00
17635;BME280;8936;49.010;12.120;2023-02-20T02:55:30;98789.38;;;9.10;100.00
17635;BME280;8936;49.010;12.120;2023-02-20T02:57:57;98785.69;;;9.11;100.00
17635;BME280;8936;49.010;12.120;2023-02-20T03:00:25;98789.50;;;9.15;100.00
17635;BME280;8936;49.010;12.120;2023-02-20T03:02:53;98788.59;;;9.09;100.00
17635;BME280;8936;49.010;12.120;2023-02-20T03:05:23;98789.63;;;9.08;100.00
17635;BME280;8936;49.010;12.120;2023-02-20T03:08:07;98792.88;;;8.99;100.00
17635;BME280;8936;49.010;12.120;2023-02-20T03:10:38;98787.78;;;9.09;100.00
17635;BME280;8936;49.010;12.120;2023-02-20T03:13:05;98783.47;;;9.19;100.00
17635;BME280;8936;49.010;12.120;2023-02-20T03:15:34;98792.66;;;9.12;100.00
17635;BME280;8936;49.010;12.120;2023-02-20T03:20:45;98784.16;;;8.92;100.00
17635;BME280;8936;49.010;12.120;2023-02-20T03:23:15;98794.97;;;8.97;100.00
17635;BME280;8936;49.010;12.120;2023-02-20T03:25:44;98792.41;;;9.02;100.00
17635;BME280;8936;49.010;12.120;2023-02-20T03:28:13;98791.13;;;8.81;100.00
17635;BME280;8936;49.010;12.120;2023-02-20T03:30:42;98794.81;;;8.80;100.00
17635;BME280;8936;49.010;12.120;2023-02-20T03:33:11;98795.16;;;8.84;100.00
17635;BME280;8936;49.010;12.120;2023-02-20T03:35:56;98797.28;;;9.05;100.00
17635;BME280;8936;49.010;12.120;2023-02-20T03:38:45;98801.56;;;9.06;100.00
17635;BME280;8936;49.010;12.120;2023-02-20T03:41:29;98800.50;;;9.07;100.00
17635;BME280;8936;49.010;12.120;2023-02-20T03:44:15;98794.34;;;8.95;100.00
17635;BME280;8936;49.010;12.120;2023-02-20T03:46:43;98804.69;;;9.03;100.00
17635;BME280;8936;49.010;12.120;2023-02-20T03:49:12;98800.50;;;8.95;100.00
17635;BME280;8936;49.010;12.120;2023-02-20T03:51:38;98788.44;;;9.16;100.00
17635;BME280;8936;49.010;12.120;2023-02-20T03:54:07;98803.53;;;9.22;100.00
17635;BME280;8936;49.010;12.120;2023-02-20T03:56:36;98795.19;;;9.18;100.00
17635;BME280;8936;49.010;12.120;2023-02-20T03:59:05;98807.69;;;8.95;100.00
17635;BME280;8936;49.010;12.120;2023-02-20T04:01:34;98809.56;;;9.06;100.00
17635;BME280;8936;49.010;12.120;2023-02-20T04:04:01;98806.75;;;9.01;100.00
17635;BME280;8936;49.010;12.120;2023-02-20T04:06:30;98805.16;;;9.00;100.00
17635;BME280;8936;49.010;12.120;2023-02-20T04:08:59;98809.56;;;9.06;100.00
17635;BME280;8936;49.010;12.120;2023-02-20T04:11:31;98813.47;;;8.92;100.00
17635;BME280;8936;49.010;12.120;2023-02-20T04:13:58;98809.97;;;8.80;100.00
17635;BME280;8936;49.010;12.120;2023-02-20T04:16:25;98802.34;;;8.95;100.00
17635;BME280;8936;49.010;12.120;2023-02-20T04:18:52;98807.00;;;8.99;100.00
17635;BME280;8936;49.010;12.120;2023-02-20T04:21:19;98818.47;;;9.00;100.00
17635;BME280;8936;49.010;12.120;2023-02-20T04:23:47;98807.22;;;8.75;100.00
17635;BME280;8936;49.010;12.120;2023-02-20T04:26:16;98807.22;;;8.75;100.00
17635;BME280;8936;49.010;12.120;2023-02-20T04:28:45;98808.97;;;8.92;100.00
17635;BME280;8936;49.010;12.120;2023-02-20T04:31:12;98815.56;;;8.90;100.00
17635;BME280;8936;49.010;12.120;2023-02-20T04:33:40;98809.06;;;8.86;100.00
17635;BME280;8936;49.010;12.120;2023-02-20T04:36:06;98810.09;;;8.73;100.00
17635;BME280;8936;49.010;12.120;2023-02-20T04:38:33;98802.09;;;8.73;100.00
17635;BME280;8936;49.010;12.120;2023-02-20T04:40:59;98806.19;;;8.87;100.00
17635;BME280;8936;49.010;12.120;2023-02-20T04:43:26;98805.16;;;9.00;100.00
17635;BME280;8936;49.010;12.120;2023-02-20T04:45:53;98809.88;;;8.86;100.00
17635;BME280;8936;49.010;12.120;2023-02-20T04:48:20;98810.22;;;8.90;100.00
17635;BME280;8936;49.010;12.120;2023-02-20T04:50:46;98807.69;;;8.95;100.00
17635;BME280;8936;49.010;12.120;2023-02-20T04:53:12;98818.22;;;8.90;100.00
17635;BME280;8936;49.010;12.120;2023-02-20T04:55:39;98819.50;;;8.87;100.00
17635;BME280;8936;49.010;12.120;2023-02-20T04:58:05;98815.31;;;8.80;100.00
17635;BME280;8936;49.010;12.120;2023-02-20T05:00:31;98815.78;;;8.77;100.00
17635;BME280;8936;49.010;12.120;2023-02-20T05:02:59;98815.41;;;8.73;100.00
17635;BME280;8936;49.010;12.120;2023-02-20T05:05:26;98812.28;;;8.76;100.00
17635;BME280;8936;49.010;12.120;2023-02-20T05:07:53;98821.91;;;8.89;100.00
17635;BME280;8936;49.010;12.120;2023-02-20T05:10:20;98818.88;;;8.74;100.00
17635;BME280;8936;49.010;12.120;2023-02-20T05:12:46;98829.97;;;8.59;100.00
17635;BME280;8936;49.010;12.120;2023-02-20T05:15:13;98821.75;;;8.60;100.00
17635;BME280;8936;49.010;12.120;2023-02-20T05:17:39;98820.41;;;8.70;100.00
17635;BME280;8936;49.010;12.120;2023-02-20T05:20:08;98818.88;;;8.74;100.00
17635;BME280;8936;49.010;12.120;2023-02-20T05:22:34;98816.22;;;8.85;100.00
17635;BME280;8936;49.010;12.120;2023-02-20T05:25:00;98828.31;;;8.88;100.00
17635;BME280;8936;49.010;12.120;2023-02-20T05:27:26;98825.97;;;8.80;100.00
17635;BME280;8936;49.010;12.120;2023-02-20T05:29:53;98842.50;;;8.70;100.00
17635;BME280;8936;49.010;12.120;2023-02-20T05:32:20;98834.09;;;8.85;100.00
17635;BME280;8936;49.010;12.120;2023-02-20T05:34:47;98839.19;;;8.98;100.00
17635;BME280;8936;49.010;12.120;2023-02-20T05:37:16;98840.94;;;8.92;100.00
17635;BME280;8936;49.010;12.120;2023-02-20T05:39:43;98847.25;;;8.68;100.00
17635;BME280;8936;49.010;12.120;2023-02-20T05:42:10;98848.06;;;8.68;100.00
17635;BME280;8936;49.010;12.120;2023-02-20T05:44:37;98852.78;;;8.66;100.00
17635;BME280;8936;49.010;12.120;2023-02-20T05:47:03;98853.06;;;8.77;100.00
17635;BME280;8936;49.010;12.120;2023-02-20T05:49:31;98847.91;;;8.63;100.00
17635;BME280;8936;49.010;12.120;2023-02-20T05:51:59;98833.59;;;8.76;100.00
17635;BME280;8936;49.010;12.120;2023-02-20T05:54:27;98840.19;;;8.74;100.00
17635;BME280;8936;49.010;12.120;2023-02-20T05:56:53;98841.94;;;8.80;100.00
17635;BME280;8936;49.010;12.120;2023-02-20T05:59:21;98849.91;;;8.68;100.00
17635;BME280;8936;49.010;12.120;2023-02-20T06:01:47;98844.03;;;8.78;100.00
17635;BME280;8936;49.010;12.120;2023-02-20T06:04:16;98853.84;;;8.65;100.00
17635;BME280;8936;49.010;12.120;2023-02-20T06:06:43;98840.44;;;8.72;100.00
17635;BME280;8936;49.010;12.120;2023-02-20T06:09:09;98847.16;;;8.75;100.00
17635;BME280;8936;49.010;12.120;2023-02-20T06:11:38;98845.25;;;8.63;100.00
17635;BME280;8936;49.010;12.120;2023-02-20T06:14:05;98844.09;;;8.59;100.00
17635;BME280;8936;49.010;12.120;2023-02-20T06:16:32;98841.25;;;8.73;100.00
17635;BME280;8936;49.010;12.120;2023-02-20T06:18:59;98848.09;;;8.80;100.00
17635;BME280;8936;49.010;12.120;2023-02-20T06:21:26;98844.81;;;8.66;100.00
17635;BME280;8936;49.010;12.120;2023-02-20T06:23:53;98842.50;;;8.70;100.00
17635;BME280;8936;49.010;12.120;2023-02-20T06:26:20;98846.34;;;8.86;100.00
17635;BME280;8936;49.010;12.120;2023-02-20T06:28:48;98848.91;;;8.81;100.00
17635;BME280;8936;49.010;12.120;2023-02-20T06:31:19;98860.28;;;8.88;100.00
17635;BME280;8936;49.010;12.120;2023-02-20T06:33:45;98866.72;;;8.68;100.00
17635;BME280;8936;49.010;12.120;2023-02-20T06:36:17;98857.38;;;8.89;100.00
17635;BME280;8936;49.010;12.120;2023-02-20T06:38:44;98862.38;;;8.97;100.00
17635;BME280;8936;49.010;12.120;2023-02-20T06:41:10;98867.31;;;8.82;100.00
17635;BME280;8936;49.010;12.120;2023-02-20T06:43:36;98872.53;;;8.89;100.00
17635;BME280;8936;49.010;12.120;2023-02-20T06:46:04;98883.44;;;8.87;100.00
17635;BME280;8936;49.010;12.120;2023-02-20T06:48:30;98868.38;;;8.81;100.00
17635;BME280;8936;49.010;12.120;2023-02-20T06:50:57;98870.75;;;8.71;100.00
17635;BME280;8936;49.010;12.120;2023-02-20T06:53:23;98886.25;;;8.62;100.00
17635;BME280;8936;49.010;12.120;2023-02-20T06:55:49;98890.41;;;8.58;100.00
17635;BME280;8936;49.010;12.120;2023-02-20T06:58:16;98885.06;;;8.58;100.00
17635;BME280;8936;49.010;12.120;2023-02-20T07:00:42;98883.44;;;8.57;100.00
17635;BME280;8936;49.010;12.120;2023-02-20T07:03:10;98875.97;;;8.66;100.00
17635;BME280;8936;49.010;12.120;2023-02-20T07:05:36;98867.88;;;8.73;100.00
17635;BME280;8936;49.010;12.120;2023-02-20T07:08:03;98868.81;;;8.78;100.00
17635;BME280;8936;49.010;12.120;2023-02-20T07:10:29;98867.06;;;8.72;100.00
17635;BME280;8936;49.010;12.120;2023-02-20T07:12:55;98875.88;;;8.73;100.00
17635;BME280;8936;49.010;12.120;2023-02-20T07:15:22;98874.31;;;8.53;100.00
17635;BME280;8936;49.010;12.120;2023-02-20T07:17:48;98867.88;;;8.73;100.00
17635;BME280;8936;49.010;12.120;2023-02-20T07:20:16;98879.41;;;8.66;100.00
17635;BME280;8936;49.010;12.120;2023-02-20T07:22:48;98868.88;;;8.60;100.00
17635;BME280;8936;49.010;12.120;2023-02-20T07:25:14;98872.03;;;8.68;100.00
17635;BME280;8936;49.010;12.120;2023-02-20T07:27:40;98875.25;;;8.59;100.00
17635;BME280;8936;49.010;12.120;2023-02-20T07:30:07;98876.75;;;8.66;100.00
17635;BME280;8936;49.010;12.120;2023-02-20T07:32:34;98860.19;;;8.64;100.00
17635;BME280;8936;49.010;12.120;2023-02-20T07:35:00;98858.56;;;8.63;100.00
17635;BME280;8936;49.010;12.120;2023-02-20T07:37:28;98862.28;;;8.62;100.00
17635;BME280;8936;49.010;12.120;2023-02-20T07:39:54;98861.47;;;8.62;100.00
17635;BME280;8936;49.010;12.120;2023-02-20T07:42:20;98859.69;;;8.44;100.00
17635;BME280;8936;49.010;12.120;2023-02-20T07:44:47;98860.13;;;8.41;100.00
17635;BME280;8936;49.010;12.120;2023-02-20T07:47:13;98860.47;;;8.45;100.00
17635;BME280;8936;49.010;12.120;2023-02-20T07:49:40;98870.84;;;8.64;100.00
17635;BME280;8936;49.010;12.120;2023-02-20T07:52:06;98857.78;;;8.63;100.00
17635;BME280;8936;49.010;12.120;2023-02-20T07:54:34;98854.59;;;8.54;100.00
17635;BME280;8936;49.010;12.120;2023-02-20T07:57:00;98856.69;;;8.52;100.00
17635;BME280;8936;49.010;12.120;2023-02-20T07:59:27;98858.63;;;8.45;100.00
17635;BME280;8936;49.010;12.120;2023-02-20T08:01:53;98868.88;;;8.60;100.00
17635;BME280;8936;49.010;12.120;2023-02-20T08:04:19;98863.13;;;8.75;100.00
17635;BME280;8936;49.010;12.120;2023-02-20T08:06:46;98859.25;;;8.59;100.00
17635;BME280;8936;49.010;12.120;2023-02-20T08:09:12;98857.88;;;8.56;100.00
17635;BME280;8936;49.010;12.120;2023-02-20T08:11:40;98854.16;;;8.57;100.00
17635;BME280;8936;49.010;12.120;2023-02-20T08:14:06;98859.47;;;8.57;100.00
17635;BME280;8936;49.010;12.120;2023-02-20T08:16:32;98849.63;;;8.46;100.00
17635;BME280;8936;49.010;12.120;2023-02-20T08:18:59;98844.06;;;8.48;100.00
17635;BME280;8936;49.010;12.120;2023-02-20T08:21:25;98854.38;;;8.44;100.00
17635;BME280;8936;49.010;12.120;2023-02-20T08:23:52;98860.66;;;8.61;100.00
17635;BME280;8936;49.010;12.120;2023-02-20T08:26:19;98859.38;;;8.64;100.00
17635;BME280;8936;49.010;12.120;2023-02-20T08:28:47;98844.88;;;8.48;100.00
17635;BME280;8936;49.010;12.120;2023-02-20T08:31:14;98838.63;;;8.54;100.00
17635;BME280;8936;49.010;12.120;2023-02-20T08:33:40;98839.22;;;8.56;100.00
17635;BME280;8936;49.010;12.120;2023-02-20T08:36:07;98842.84;;;8.74;100.00
17635;BME280;8936;49.010;12.120;2023-02-20T08:38:34;98860.09;;;8.71;100.00
17635;BME280;8936;49.010;12.120;2023-02-20T08:41:02;98864.53;;;8.77;100.00
17635;BME280;8936;49.010;12.120;2023-02-20T08:43:28;98855.63;;;8.83;100.00
17635;BME280;8936;49.010;12.120;2023-02-20T08:45:56;98837.16;;;8.58;100.00
17635;BME280;8936;49.010;12.120;2023-02-20T08:48:22;98829.53;;;8.74;100.00
17635;BME280;8936;49.010;12.120;2023-02-20T08:50:49;98844.69;;;8.73;100.00
17635;BME280;8936;49.010;12.120;2023-02-20T08:53:15;98837.22;;;8.82;100.00
17635;BME280;8936;49.010;12.120;2023-02-20T08:55:42;98829.19;;;8.70;100.00
17635;BME280;8936;49.010;12.120;2023-02-20T08:58:08;98823.63;;;8.72;100.00
17635;BME280;8936;49.010;12.120;2023-02-20T09:00:35;98823.63;;;8.72;100.00
17635;BME280;8936;49.010;12.120;2023-02-20T09:03:03;98830.59;;;8.73;100.00
17635;BME280;8936;49.010;12.120;2023-02-20T09:05:31;98830.25;;;8.81;100.00
17635;BME280;8936;49.010;12.120;2023-02-20T09:07:58;98823.44;;;8.85;100.00
17635;BME280;8936;49.010;12.120;2023-02-20T09:10:24;98829.69;;;8.79;100.00
17635;BME280;8936;49.010;12.120;2023-02-20T09:12:50;98823.53;;;8.78;100.00
17635;BME280;8936;49.010;12.120;2023-02-20T09:15:17;98816.84;;;8.99;100.00
17635;BME280;8936;49.010;12.120;2023-02-20T09:17:43;98795.19;;;9.18;100.00
17635;BME280;8936;49.010;12.120;2023-02-20T09:20:11;98803.28;;;8.89;100.00
17635;BME280;8936;49.010;12.120;2023-02-20T09:22:39;98796.81;;;8.96;100.00
17635;BME280;8936;49.010;12.120;2023-02-20T09:25:06;98795.31;;;9.23;100.00
17635;BME280;8936;49.010;12.120;2023-02-20T09:27:32;98790.91;;;8.94;100.00
17635;BME280;8936;49.010;12.120;2023-02-20T09:29:59;98797.84;;;8.95;100.00
17635;BME280;8936;49.010;12.120;2023-02-20T09:32:25;98798.91;;;9.06;100.00
17635;BME280;8936;49.010;12.120;2023-02-20T09:34:51;98786.72;;;9.33;100.00
17635;BME280;8936;49.010;12.120;2023-02-20T09:37:19;98781.97;;;9.35;100.00
17635;BME280;8936;49.010;12.120;2023-02-20T09:39:45;98775.81;;;9.35;100.00
17635;BME280;8936;49.010;12.120;2023-02-20T09:42:18;98776.84;;;9.45;100.00
17635;BME280;8936;49.010;12.120;2023-02-20T09:44:49;98776.88;;;9.34;100.00
17635;BME280;8936;49.010;12.120;2023-02-20T09:47:24;98789.25;;;9.51;100.00
17635;BME280;8936;49.010;12.120;2023-02-20T09:49:54;98779.13;;;9.53;100.00
17635;BME280;8936;49.010;12.120;2023-02-20T09:52:24;98769.47;;;9.24;100.00
17635;BME280;8936;49.010;12.120;2023-02-20T09:54:51;98781.81;;;9.53;100.00
17635;BME280;8936;49.010;12.120;2023-02-20T09:57:20;98778.09;;;9.54;100.00
17635;BME280;8936;49.010;12.120;2023-02-20T09:59:48;98771.69;;;9.67;100.00
17635;BME280;8936;49.010;12.120;2023-02-20T10:02:17;98771.66;;;9.78;100.00
17635;BME280;8936;49.010;12.120;2023-02-20T10:04:45;98746.16;;;9.31;100.00
17635;BME280;8936;49.010;12.120;2023-02-20T10:07:14;98753.34;;;9.07;100.00
17635;BME280;8936;49.010;12.120;2023-02-20T10:09:43;98749.09;;;9.06;100.00
17635;BME280;8936;49.010;12.120;2023-02-20T10:12:12;98752.44;;;9.02;100.00
17635;BME280;8936;49.010;12.120;2023-02-20T10:14:47;98749.88;;;9.07;100.00
17635;BME280;8936;49.010;12.120;2023-02-20T10:17:20;98745.81;;;9.16;100.00
17635;BME280;8936;49.010;12.120;2023-02-20T10:19:49;98743.16;;;8.93;100.00
17635;BME280;8936;49.010;12.120;2023-02-20T10:22:17;98737.81;;;9.16;100.00
17635;BME280;8936;49.010;12.120;2023-02-20T10:24:49;98742.81;;;9.24;100.00
17635;BME280;8936;49.010;12.120;2023-02-20T10:27:24;98742.13;;;9.17;100.00
17635;BME280;8936;49.010;12.120;2023-02-20T10:29:52;98733.94;;;9.58;100.00
17635;BME280;8936;49.010;12.120;2023-02-20T10:32:20;98734.78;;;9.36;100.00
17635;BME280;8936;49.010;12.120;2023-02-20T10:34:50;98737.13;;;9.20;100.00
17635;BME280;8936;49.010;12.120;2023-02-20T10:37:19;98737.25;;;9.14;100.00
17635;BME280;8936;49.010;12.120;2023-02-20T10:39:49;98729.03;;;9.15;100.00
17635;BME280;8936;49.010;12.120;2023-02-20T10:42:19;98714.66;;;9.28;100.00
17635;BME280;8936;49.010;12.120;2023-02-20T10:44:49;98715.44;;;9.40;100.00
17635;BME280;8936;49.010;12.120;2023-02-20T10:47:19;98710.50;;;9.60;100.00
17635;BME280;8936;49.010;12.120;2023-02-20T10:49:48;98698.78;;;9.90;100.00
17635;BME280;8936;49.010;12.120;2023-02-20T10:52:19;98702.69;;;9.99;100.00
17635;BME280;8936;49.010;12.120;2023-02-20T10:54:49;98691.53;;;10.02;100.00
17635;BME280;8936;49.010;12.120;2023-02-20T10:57:19;98690.66;;;9.96;100.00
17635;BME280;8936;49.010;12.120;2023-02-20T10:59:47;98689.91;;;10.01;100.00
17635;BME280;8936;49.010;12.120;2023-02-20T11:02:15;98670.91;;;9.97;100.00
17635;BME280;8936;49.010;12.120;2023-02-20T11:04:45;98672.03;;;10.01;100.00
17635;BME280;8936;49.010;12.120;2023-02-20T11:07:13;98666.75;;;10.35;100.00
17635;BME280;8936;49.010;12.120;2023-02-20T11:09:42;98665.03;;;10.62;100.00
17635;BME280;8936;49.010;12.120;2023-02-20T11:12:09;98666.75;;;10.51;100.00
17635;BME280;8936;49.010;12.120;2023-02-20T11:14:45;98669.59;;;10.45;100.00
17635;BME280;8936;49.010;12.120;2023-02-20T11:17:12;98662.38;;;10.28;100.00
17635;BME280;8936;49.010;12.120;2023-02-20T11:19:40;98662.63;;;10.60;100.00
17635;BME280;8936;49.010;12.120;2023-02-20T11:22:07;98652.09;;;10.37;100.00
17635;BME280;8936;49.010;12.120;2023-02-20T11:24:34;98643.13;;;10.60;100.00
17635;BME280;8936;49.010;12.120;2023-02-20T11:27:03;98645.19;;;10.74;100.00
17635;BME280;8936;49.010;12.120;2023-02-20T11:29:36;98644.09;;;10.54;100.00
17635;BME280;8936;49.010;12.120;2023-02-20T11:34:49;98637.06;;;10.64;100.00
17635;BME280;8936;49.010;12.120;2023-02-20T11:37:27;98628.13;;;10.75;100.00
17635;BME280;8936;49.010;12.120;2023-02-20T11:39:53;98628.88;;;10.38;100.00
17635;BME280;8936;49.010;12.120;2023-02-20T11:42:24;98610.84;;;10.45;100.00
17635;BME280;8936;49.010;12.120;2023-02-20T11:45:06;98618.25;;;10.59;100.00
17635;BME280;8936;49.010;12.120;2023-02-20T11:47:36;98607.78;;;10.74;100.00
17635;BME280;8936;49.010;12.120;2023-02-20T11:50:14;98600.16;;;10.61;100.00
17635;BME280;8936;49.010;12.120;2023-02-20T11:52:57;98600.19;;;11.05;100.00
17635;BME280;8936;49.010;12.120;2023-02-20T11:55:25;98589.34;;;10.73;100.00
17635;BME280;8936;49.010;12.120;2023-02-20T11:57:51;98597.69;;;10.98;100.00
17635;BME280;8936;49.010;12.120;2023-02-20T12:00:19;98589.00;;;10.86;100.00
17635;BME280;8936;49.010;12.120;2023-02-20T12:02:47;98586.75;;;11.00;100.00
17635;BME280;8936;49.010;12.120;2023-02-20T12:05:14;98569.94;;;11.26;100.00
17635;BME280;8936;49.010;12.120;2023-02-20T12:07:42;98568.28;;;10.98;100.00
17635;BME280;8936;49.010;12.120;2023-02-20T12:10:13;98567.03;;;11.06;100.00
17635;BME280;8936;49.010;12.120;2023-02-20T12:12:41;98568.25;;;11.42;100.00
17635;BME280;8936;49.010;12.120;2023-02-20T12:15:11;98555.91;;;11.41;100.00
17635;BME280;8936;49.010;12.120;2023-02-20T12:17:39;98549.97;;;11.60;100.00
17635;BME280;8936;49.010;12.120;2023-02-20T12:20:08;98537.13;;;11.62;100.00
17635;BME280;8936;49.010;12.120;2023-02-20T12:22:38;98544.28;;;11.78;100.00
17635;BME280;8936;49.010;12.120;2023-02-20T12:25:11;98538.63;;;11.75;100.00
17635;BME280;8936;49.010;12.120;2023-02-20T12:27:44;98546.22;;;11.88;100.00
17635;BME280;8936;49.010;12.120;2023-02-20T12:30:18;98529.25;;;11.77;100.00
17635;BME280;8936;49.010;12.120;2023-02-20T12:32:50;98535.94;;;11.75;100.00
17635;BME280;8936;49.010;12.120;2023-02-20T12:35:21;98541.00;;;11.71;100.00
17635;BME280;8936;49.010;12.120;2023-02-20T12:37:54;98533.00;;;11.76;100.00
17635;BME280;8936;49.010;12.120;2023-02-20T12:40:29;98521.13;;;11.67;100.00
17635;BME280;8936;49.010;12.120;2023-02-20T12:43:00;98522.97;;;11.67;100.00
17635;BME280;8936;49.010;12.120;2023-02-20T12:45:33;98523.25;;;11.65;100.00
17635;BME280;8936;49.010;12.120;2023-02-20T12:48:08;98511.81;;;11.43;100.00
17635;BME280;8936;49.010;12.120;2023-02-20T12:50:44;98521.19;;;11.46;100.00
17635;BME280;8936;49.010;12.120;2023-02-20T12:53:16;98501.22;;;11.26;100.00
17635;BME280;8936;49.010;12.120;2023-02-20T12:55:47;98498.19;;;11.71;100.00
17635;BME280;8936;49.010;12.120;2023-02-20T12:58:18;98485.91;;;11.75;100.00
17635;BME280;8936;49.010;12.120;2023-02-20T13:00:50;98479.13;;;12.00;100.00
17635;BME280;8936;49.010;12.120;2023-02-20T13:03:18;98481.38;;;12.18;100.00
17635;BME280;8936;49.010;12.120;2023-02-20T13:05:45;98479.03;;;12.31;100.00
17635;BME280;8936;49.010;12.120;2023-02-20T13:08:15;98478.25;;;12.36;100.00
17635;BME280;8936;49.010;12.120;2023-02-20T13:10:47;98468.06;;;12.33;100.00
17635;BME280;8936;49.010;12.120;2023-02-20T13:13:15;98462.97;;;12.31;100.00
17635;BME280;8936;49.010;12.120;2023-02-20T13:15:42;98471.28;;;12.35;100.00